createdAt,value
2022-12-23T00:00:39.626Z,9.6
2022-12-23T00:01:40.309Z,10.7
2022-12-23T00:02:41.149Z,12.5
2022-12-23T00:03:41.871Z,10.9
2022-12-23T00:04:42.387Z,11.7
2022-12-23T00:05:42.991Z,11.6
2022-12-23T00:06:43.580Z,11.0
2022-12-23T00:07:44.174Z,11.5
2022-12-23T00:08:44.792Z,10.9
2022-12-23T00:09:45.385Z,12.3
2022-12-23T00:10:45.981Z,11.9
2022-12-23T00:11:46.589Z,10.9
2022-12-23T00:12:47.188Z,11.1
2022-12-23T00:13:47.784Z,10.9
2022-12-23T00:14:48.401Z,12.2
2022-12-23T00:15:48.995Z,11.5
2022-12-23T00:16:49.674Z,13.1
2022-12-23T00:17:50.207Z,12.3
2022-12-23T00:18:50.800Z,12.3
2022-12-23T00:19:51.415Z,12.4
2022-12-23T00:20:52.011Z,12.8
2022-12-23T00:21:52.613Z,12.5
2022-12-23T00:22:53.224Z,13.0
2022-12-23T00:23:53.814Z,11.8
2022-12-23T00:24:54.409Z,12.6
2022-12-23T00:25:55.005Z,13.0
2022-12-23T00:26:55.603Z,13.4
2022-12-23T00:27:56.201Z,13.2
2022-12-23T00:28:56.815Z,14.0
2022-12-23T00:29:57.430Z,13.6
2022-12-23T00:30:58.008Z,13.0
2022-12-23T00:31:58.674Z,13.5
2022-12-23T00:32:59.212Z,12.8
2022-12-23T00:33:59.804Z,12.8
2022-12-23T00:35:00.404Z,13.0
2022-12-23T00:36:01.052Z,11.9
2022-12-23T00:37:01.612Z,12.4
2022-12-23T00:38:02.199Z,12.5
2022-12-23T00:39:02.796Z,13.0
2022-12-23T00:40:06.796Z,13.4
2022-12-23T00:41:04.987Z,13.7
2022-12-23T00:42:05.577Z,14.3
2022-12-23T00:43:06.200Z,13.6
2022-12-23T00:44:06.789Z,13.3
2022-12-23T00:45:07.398Z,14.3
2022-12-23T00:46:08.086Z,14.5
2022-12-23T00:47:08.657Z,15.0
2022-12-23T00:48:09.254Z,14.0
2022-12-23T00:49:09.851Z,15.1
2022-12-23T00:50:10.447Z,15.0
2022-12-23T00:51:11.044Z,17.6
2022-12-23T00:52:11.659Z,18.4
2022-12-23T00:53:12.235Z,16.4
2022-12-23T00:54:12.830Z,16.7
2022-12-23T00:55:13.428Z,16.7
2022-12-23T00:56:14.022Z,18.6
2022-12-23T00:57:14.621Z,18.8
2022-12-23T00:58:15.218Z,17.0
2022-12-23T00:59:15.813Z,16.9
2022-12-23T01:00:16.406Z,16.0
2022-12-23T01:01:17.096Z,19.3
2022-12-23T01:02:17.740Z,17.1
2022-12-23T01:03:18.409Z,19.3
2022-12-23T01:04:18.964Z,19.8
2022-12-23T01:05:19.598Z,20.8
2022-12-23T01:06:20.174Z,20.0
2022-12-23T01:07:20.771Z,18.1
2022-12-23T01:08:21.393Z,18.8
2022-12-23T01:09:21.986Z,17.7
2022-12-23T01:10:22.600Z,24.0
2022-12-23T01:11:23.203Z,19.1
2022-12-23T01:12:23.795Z,21.2
2022-12-23T01:13:24.388Z,16.3
2022-12-23T01:14:24.991Z,17.6
2022-12-23T01:15:25.585Z,16.5
2022-12-23T01:16:26.233Z,15.3
2022-12-23T01:17:26.797Z,17.8
2022-12-23T01:18:27.427Z,16.0
2022-12-23T01:19:28.045Z,14.4
2022-12-23T01:20:28.626Z,14.6
2022-12-23T01:21:29.221Z,17.0
2022-12-23T01:22:29.824Z,15.4
2022-12-23T01:23:30.435Z,15.6
2022-12-23T01:24:31.050Z,15.6
2022-12-23T01:25:31.665Z,16.3
2022-12-23T01:26:32.294Z,18.9
2022-12-23T01:27:32.890Z,15.1
2022-12-23T01:28:33.486Z,22.0
2022-12-23T01:29:34.080Z,16.3
2022-12-23T01:30:34.675Z,18.8
2022-12-23T01:31:35.310Z,18.2
2022-12-23T01:32:35.908Z,17.0
2022-12-23T01:33:36.561Z,20.3
2022-12-23T01:34:37.824Z,19.4
2022-12-23T01:35:38.474Z,16.3
2022-12-23T01:36:39.071Z,16.5
2022-12-23T01:37:39.668Z,17.3
2022-12-23T01:38:40.269Z,18.2
2022-12-23T01:39:40.863Z,19.5
2022-12-23T01:40:41.458Z,17.1
2022-12-23T01:41:42.053Z,25.8
2022-12-23T01:42:42.648Z,19.3
2022-12-23T01:43:43.262Z,16.7
2022-12-23T01:44:43.860Z,19.4
2022-12-23T01:45:44.656Z,17.5
2022-12-23T01:46:45.208Z,20.1
2022-12-23T01:47:45.808Z,20.7
2022-12-23T01:48:46.398Z,17.9
2022-12-23T01:49:46.995Z,22.4
2022-12-23T01:50:47.590Z,24.2
2022-12-23T01:51:48.186Z,20.6
2022-12-23T01:52:48.802Z,23.6
2022-12-23T01:53:49.404Z,22.9
2022-12-23T01:54:49.995Z,25.6
2022-12-23T01:55:50.601Z,27.9
2022-12-23T01:56:51.194Z,21.8
2022-12-23T01:57:51.789Z,26.5
2022-12-23T01:58:52.377Z,22.6
2022-12-23T01:59:52.971Z,24.7
2022-12-23T02:00:53.585Z,33.6
2022-12-23T02:01:54.280Z,28.9
2022-12-23T02:02:54.967Z,29.8
2022-12-23T02:03:55.543Z,30.5
2022-12-23T02:04:56.410Z,29.0
2022-12-23T02:05:57.009Z,28.3
2022-12-23T02:06:57.608Z,25.3
2022-12-23T02:07:58.200Z,30.3
2022-12-23T02:08:58.818Z,32.0
2022-12-23T02:09:59.431Z,33.2
2022-12-23T02:11:00.003Z,32.8
2022-12-23T02:12:00.625Z,30.8
2022-12-23T02:13:01.216Z,37.4
2022-12-23T02:14:01.812Z,35.4
2022-12-23T02:15:02.430Z,33.2
2022-12-23T02:16:03.035Z,36.0
2022-12-23T02:17:03.678Z,37.2
2022-12-23T02:18:04.249Z,37.6
2022-12-23T02:19:04.849Z,40.5
2022-12-23T02:20:05.447Z,36.0
2022-12-23T02:21:06.075Z,39.0
2022-12-23T02:22:06.758Z,37.3
2022-12-23T02:23:07.473Z,39.7
2022-12-23T02:24:08.074Z,39.5
2022-12-23T02:25:08.692Z,37.8
2022-12-23T02:26:09.302Z,41.5
2022-12-23T02:27:09.901Z,40.3
2022-12-23T02:28:10.514Z,40.7
2022-12-23T02:29:11.111Z,46.6
2022-12-23T02:30:11.728Z,43.3
2022-12-23T02:31:12.346Z,44.3
2022-12-23T02:32:12.944Z,43.6
2022-12-23T02:33:13.520Z,43.3
2022-12-23T02:34:14.121Z,40.6
2022-12-23T02:35:14.714Z,44.0
2022-12-23T02:36:15.308Z,41.0
2022-12-23T02:37:15.935Z,37.6
2022-12-23T02:38:16.524Z,43.9
2022-12-23T02:39:17.123Z,39.2
2022-12-23T02:40:17.716Z,46.0
2022-12-23T02:41:18.330Z,42.0
2022-12-23T02:42:18.925Z,39.9
2022-12-23T02:43:19.531Z,50.2
2022-12-23T02:44:20.123Z,41.5
2022-12-23T02:45:20.714Z,44.3
2022-12-23T02:46:21.334Z,44.7
2022-12-23T02:47:21.923Z,46.2
2022-12-23T02:48:22.521Z,49.0
2022-12-23T02:49:23.123Z,46.6
2022-12-23T02:50:23.712Z,42.7
2022-12-23T02:51:24.310Z,43.8
2022-12-23T02:52:24.909Z,42.5
2022-12-23T02:53:25.504Z,46.7
2022-12-23T02:54:26.101Z,42.1
2022-12-23T02:55:26.697Z,42.0
2022-12-23T02:56:27.287Z,45.5
2022-12-23T02:57:27.889Z,41.1
2022-12-23T02:58:28.505Z,41.5
2022-12-23T02:59:29.113Z,41.7
2022-12-23T03:00:29.717Z,41.2
2022-12-23T03:01:30.431Z,43.9
2022-12-23T03:02:31.116Z,41.3
2022-12-23T03:03:31.903Z,37.4
2022-12-23T03:04:32.549Z,36.4
2022-12-23T03:05:33.171Z,32.5
2022-12-23T03:06:33.768Z,35.9
2022-12-23T03:07:34.363Z,33.4
2022-12-23T03:08:34.953Z,33.3
2022-12-23T03:09:35.552Z,31.7
2022-12-23T03:10:36.149Z,32.5
2022-12-23T03:11:36.766Z,29.1
2022-12-23T03:12:37.365Z,29.0
2022-12-23T03:13:37.962Z,30.0
2022-12-23T03:14:38.581Z,28.8
2022-12-23T03:15:39.206Z,26.0
2022-12-23T03:16:39.846Z,25.8
2022-12-23T03:17:40.449Z,24.7
2022-12-23T03:18:41.062Z,21.9
2022-12-23T03:19:41.643Z,23.7
2022-12-23T03:20:42.233Z,23.9
2022-12-23T03:21:42.831Z,21.5
2022-12-23T03:22:43.426Z,20.4
2022-12-23T03:23:44.029Z,25.8
2022-12-23T03:24:44.620Z,23.2
2022-12-23T03:25:45.240Z,23.4
2022-12-23T03:26:45.841Z,29.2
2022-12-23T03:27:46.430Z,26.0
2022-12-23T03:28:47.027Z,22.4
2022-12-23T03:29:48.073Z,23.1
2022-12-23T03:30:48.772Z,25.0
2022-12-23T03:31:49.335Z,27.8
2022-12-23T03:32:49.935Z,28.6
2022-12-23T03:33:50.556Z,20.9
2022-12-23T03:34:51.143Z,25.6
2022-12-23T03:35:51.740Z,24.6
2022-12-23T03:36:52.337Z,21.6
2022-12-23T03:37:52.929Z,22.9
2022-12-23T03:38:53.527Z,26.2
2022-12-23T03:39:54.127Z,25.9
2022-12-23T03:40:54.719Z,23.1
2022-12-23T03:41:55.329Z,24.6
2022-12-23T03:42:55.913Z,22.8
2022-12-23T03:43:56.511Z,25.4
2022-12-23T03:45:36.392Z,22.2
2022-12-23T03:45:58.622Z,25.5
2022-12-23T03:46:59.213Z,24.2
2022-12-23T03:47:59.801Z,25.9
2022-12-23T03:49:00.398Z,24.5
2022-12-23T03:50:00.996Z,21.6
2022-12-23T03:51:01.600Z,19.7
2022-12-23T03:52:02.186Z,20.8
2022-12-23T03:53:02.782Z,24.4
2022-12-23T03:54:03.380Z,24.6
2022-12-23T03:55:03.997Z,21.9
2022-12-23T03:56:04.595Z,25.3
2022-12-23T03:57:05.203Z,24.2
2022-12-23T03:58:05.786Z,23.3
2022-12-23T03:59:06.383Z,19.8
2022-12-23T04:00:06.987Z,23.5
2022-12-23T04:01:07.612Z,23.6
2022-12-23T04:02:08.359Z,20.0
2022-12-23T04:03:08.961Z,21.6
2022-12-23T04:04:09.612Z,24.0
2022-12-23T04:05:10.267Z,20.1
2022-12-23T04:06:10.889Z,20.5
2022-12-23T04:07:11.489Z,21.8
2022-12-23T04:08:12.076Z,22.1
2022-12-23T04:09:15.444Z,22.8
2022-12-23T04:10:14.283Z,18.0
2022-12-23T04:11:14.901Z,23.5
2022-12-23T04:12:15.495Z,17.3
2022-12-23T04:13:16.096Z,18.5
2022-12-23T04:14:16.692Z,21.2
2022-12-23T04:15:17.292Z,18.9
2022-12-23T04:16:17.921Z,20.2
2022-12-23T04:17:18.532Z,24.3
2022-12-23T04:18:19.138Z,16.9
2022-12-23T04:19:19.748Z,17.7
2022-12-23T04:20:20.344Z,18.4
2022-12-23T04:21:20.968Z,19.4
2022-12-23T04:22:21.555Z,19.6
2022-12-23T04:23:22.179Z,17.3
2022-12-23T04:24:22.779Z,19.0
2022-12-23T04:25:23.363Z,24.4
2022-12-23T04:26:23.964Z,14.8
2022-12-23T04:27:24.582Z,22.6
2022-12-23T04:28:25.186Z,15.7
2022-12-23T04:29:25.787Z,16.6
2022-12-23T04:30:31.650Z,14.4
2022-12-23T04:31:28.029Z,18.5
2022-12-23T04:32:28.619Z,15.3
2022-12-23T04:33:29.218Z,14.8
2022-12-23T04:34:29.812Z,14.9
2022-12-23T04:35:30.408Z,18.3
2022-12-23T04:36:31.006Z,14.8
2022-12-23T04:37:31.606Z,12.4
2022-12-23T04:38:32.220Z,15.3
2022-12-23T04:39:32.816Z,14.2
2022-12-23T04:40:33.415Z,13.7
2022-12-23T04:41:34.014Z,14.5
2022-12-23T04:42:34.621Z,12.7
2022-12-23T04:43:35.198Z,13.4
2022-12-23T04:44:35.798Z,13.0
2022-12-23T04:45:36.401Z,11.2
2022-12-23T04:46:37.058Z,13.4
2022-12-23T04:47:37.699Z,11.6
2022-12-23T04:48:38.305Z,10.8
2022-12-23T04:49:38.897Z,10.6
2022-12-23T04:50:39.515Z,13.7
2022-12-23T04:51:40.106Z,10.4
2022-12-23T04:52:40.706Z,10.0
2022-12-23T04:53:41.308Z,10.1
2022-12-23T04:54:46.031Z,12.7
2022-12-23T04:55:43.492Z,10.1
2022-12-23T04:56:44.104Z,10.5
2022-12-23T04:57:44.692Z,9.4
2022-12-23T04:58:45.289Z,9.4
2022-12-23T04:59:45.886Z,10.4
2022-12-23T05:00:46.521Z,10.4
2022-12-23T05:01:47.384Z,10.8
2022-12-23T05:02:48.149Z,9.5
2022-12-23T05:03:48.772Z,11.0
2022-12-23T05:04:49.387Z,7.3
2022-12-23T05:05:49.974Z,7.9
2022-12-23T05:06:50.575Z,4.9
2022-12-23T05:07:51.170Z,4.7
2022-12-23T05:08:51.760Z,4.4
2022-12-23T05:09:52.357Z,3.4
2022-12-23T05:10:52.965Z,4.1
2022-12-23T05:11:53.575Z,4.2
2022-12-23T05:12:54.169Z,4.4
2022-12-23T05:13:54.764Z,4.6
2022-12-23T05:14:55.367Z,3.7
2022-12-23T05:15:56.046Z,3.8
2022-12-23T05:16:59.538Z,5.0
2022-12-23T05:17:58.161Z,4.1
2022-12-23T05:18:58.746Z,3.2
2022-12-23T05:19:59.345Z,3.2
2022-12-23T05:20:59.935Z,3.2
2022-12-23T05:22:00.527Z,3.3
2022-12-23T05:23:01.123Z,3.4
2022-12-23T05:24:01.711Z,3.2
2022-12-23T05:25:02.304Z,3.2
2022-12-23T05:26:02.900Z,3.3
2022-12-23T05:27:03.497Z,3.2
2022-12-23T05:28:04.086Z,2.9
2022-12-23T05:29:04.682Z,3.1
2022-12-23T05:30:05.273Z,2.8
2022-12-23T05:31:05.912Z,2.9
2022-12-23T05:32:06.539Z,3.1
2022-12-23T05:33:07.135Z,3.3
2022-12-23T05:34:07.775Z,3.6
2022-12-23T05:35:08.380Z,4.2
2022-12-23T05:36:08.978Z,4.2
2022-12-23T05:37:09.566Z,4.4
2022-12-23T05:38:10.169Z,4.7
2022-12-23T05:39:10.758Z,5.4
2022-12-23T05:40:11.379Z,5.3
2022-12-23T05:41:12.164Z,5.9
2022-12-23T05:42:12.693Z,5.8
2022-12-23T05:43:13.293Z,5.1
2022-12-23T05:44:13.899Z,5.2
2022-12-23T05:45:14.497Z,5.0
2022-12-23T05:46:15.155Z,5.4
2022-12-23T05:47:15.726Z,6.0
2022-12-23T05:48:16.321Z,6.2
2022-12-23T05:49:16.913Z,6.2
2022-12-23T05:50:17.533Z,6.1
2022-12-23T05:51:18.127Z,6.8
2022-12-23T05:52:18.737Z,7.5
2022-12-23T05:53:19.353Z,6.8
2022-12-23T05:54:19.969Z,7.2
2022-12-23T05:55:20.565Z,7.0
2022-12-23T05:56:21.160Z,8.1
2022-12-23T05:57:21.772Z,8.3
2022-12-23T05:58:22.365Z,8.3
2022-12-23T05:59:26.470Z,9.7
2022-12-23T06:00:24.552Z,9.6
2022-12-23T06:01:25.165Z,11.0
2022-12-23T06:02:25.944Z,10.5
2022-12-23T06:03:26.760Z,10.6
2022-12-23T06:04:27.416Z,12.4
2022-12-23T06:05:28.007Z,13.0
2022-12-23T06:06:28.599Z,12.3
2022-12-23T06:07:29.197Z,16.1
2022-12-23T06:08:29.798Z,16.2
2022-12-23T06:09:30.409Z,17.5
2022-12-23T06:10:31.024Z,15.1
2022-12-23T06:11:31.627Z,14.2
2022-12-23T06:12:32.219Z,14.0
2022-12-23T06:13:32.815Z,17.3
2022-12-23T06:14:33.414Z,12.6
2022-12-23T06:15:34.009Z,15.3
2022-12-23T06:16:34.687Z,13.7
2022-12-23T06:17:35.225Z,17.9
2022-12-23T06:18:35.836Z,12.7
2022-12-23T06:19:36.434Z,15.8
2022-12-23T06:20:37.035Z,16.8
2022-12-23T06:21:37.626Z,14.8
2022-12-23T06:22:38.257Z,13.4
2022-12-23T06:23:38.835Z,14.7
2022-12-23T06:24:39.435Z,18.3
2022-12-23T06:25:40.043Z,17.4
2022-12-23T06:26:40.629Z,16.7
2022-12-23T06:27:41.248Z,14.9
2022-12-23T06:28:41.826Z,16.1
2022-12-23T06:29:42.419Z,14.0
2022-12-23T06:30:43.026Z,14.6
2022-12-23T06:31:43.677Z,18.0
2022-12-23T06:32:44.225Z,15.9
2022-12-23T06:33:44.823Z,16.2
2022-12-23T06:34:45.428Z,17.3
2022-12-23T06:35:46.016Z,20.4
2022-12-23T06:36:46.621Z,16.2
2022-12-23T06:37:47.219Z,17.7
2022-12-23T06:38:47.836Z,15.2
2022-12-23T06:39:48.420Z,20.2
2022-12-23T06:40:49.018Z,17.3
2022-12-23T06:41:49.614Z,20.0
2022-12-23T06:42:50.210Z,22.1
2022-12-23T06:43:54.285Z,19.1
2022-12-23T06:44:52.398Z,18.9
2022-12-23T06:45:53.048Z,17.2
2022-12-23T06:46:53.623Z,18.3
2022-12-23T06:47:54.234Z,19.2
2022-12-23T06:48:54.827Z,19.1
2022-12-23T06:49:55.413Z,20.7
2022-12-23T06:50:56.048Z,24.7
2022-12-23T06:51:56.655Z,21.4
2022-12-23T06:52:57.238Z,21.8
2022-12-23T06:53:57.831Z,22.1
2022-12-23T06:54:58.451Z,26.5
2022-12-23T06:55:59.065Z,20.0
2022-12-23T06:56:59.683Z,24.9
2022-12-23T06:58:00.297Z,21.4
2022-12-23T06:59:00.899Z,23.2
2022-12-23T07:00:01.487Z,22.2
2022-12-23T07:01:02.115Z,22.8
2022-12-23T07:02:02.917Z,22.3
2022-12-23T07:03:03.743Z,21.4
2022-12-23T07:04:04.447Z,20.8
2022-12-23T07:05:05.050Z,17.8
2022-12-23T07:06:05.639Z,21.8
2022-12-23T07:07:06.238Z,20.9
2022-12-23T07:08:06.851Z,22.6
2022-12-23T07:09:07.457Z,23.8
2022-12-23T07:10:08.056Z,26.6
2022-12-23T07:11:08.695Z,30.9
2022-12-23T07:12:09.269Z,40.2
2022-12-23T07:13:09.883Z,32.7
2022-12-23T07:14:10.481Z,33.2
2022-12-23T07:15:11.086Z,30.6
2022-12-23T07:16:11.712Z,28.8
2022-12-23T07:17:12.308Z,28.6
2022-12-23T07:18:12.887Z,27.6
2022-12-23T07:19:13.485Z,34.7
2022-12-23T07:20:14.083Z,31.2
2022-12-23T07:21:24.570Z,32.1
2022-12-23T07:22:15.295Z,29.7
2022-12-23T07:23:15.893Z,29.3
2022-12-23T07:24:16.516Z,26.7
2022-12-23T07:25:17.129Z,26.0
2022-12-23T07:26:17.725Z,28.3
2022-12-23T07:27:18.325Z,30.5
2022-12-23T07:28:18.923Z,25.9
2022-12-23T07:29:19.523Z,26.4
2022-12-23T07:30:20.138Z,26.6
2022-12-23T07:31:20.779Z,26.4
2022-12-23T07:32:21.371Z,28.2
2022-12-23T07:33:21.975Z,27.8
2022-12-23T07:34:22.572Z,26.0
2022-12-23T07:35:23.174Z,29.3
2022-12-23T07:36:23.786Z,29.2
2022-12-23T07:37:24.416Z,29.1
2022-12-23T07:38:25.010Z,30.5
2022-12-23T07:39:25.621Z,36.6
2022-12-23T07:40:26.223Z,33.6
2022-12-23T07:41:26.838Z,29.3
2022-12-23T07:42:44.974Z,31.8
2022-12-23T07:43:29.047Z,34.5
2022-12-23T07:44:29.799Z,29.0
2022-12-23T07:45:30.417Z,32.2
2022-12-23T07:46:31.114Z,35.0
2022-12-23T07:47:31.687Z,31.6
2022-12-23T07:48:32.278Z,33.2
2022-12-23T07:49:32.885Z,33.3
2022-12-23T07:50:33.489Z,35.2
2022-12-23T07:51:34.083Z,36.2
2022-12-23T07:52:34.679Z,34.4
2022-12-23T07:53:35.303Z,36.2
2022-12-23T07:54:35.917Z,31.3
2022-12-23T07:55:36.518Z,29.9
2022-12-23T07:56:37.118Z,25.0
2022-12-23T07:57:37.972Z,35.8
2022-12-23T07:58:38.683Z,31.4
2022-12-23T07:59:39.282Z,33.9
2022-12-23T08:00:39.881Z,31.8
2022-12-23T08:01:40.580Z,34.1
2022-12-23T08:02:41.418Z,35.6
2022-12-23T08:03:42.068Z,33.6
2022-12-23T08:04:46.021Z,35.8
2022-12-23T08:05:44.254Z,40.7
2022-12-23T08:06:44.866Z,39.0
2022-12-23T08:07:45.485Z,32.1
2022-12-23T08:08:46.116Z,33.4
2022-12-23T08:09:46.711Z,35.5
2022-12-23T08:10:48.463Z,36.1
2022-12-23T08:11:48.913Z,35.9
2022-12-23T08:12:49.524Z,45.1
2022-12-23T08:13:50.127Z,35.6
2022-12-23T08:14:50.726Z,37.0
2022-12-23T08:15:51.322Z,38.5
2022-12-23T08:16:51.972Z,34.9
2022-12-23T08:17:52.559Z,34.5
2022-12-23T08:18:53.156Z,33.1
2022-12-23T08:19:53.758Z,37.2
2022-12-23T08:20:54.356Z,37.3
2022-12-23T08:21:55.007Z,36.0
2022-12-23T08:22:55.550Z,36.3
2022-12-23T08:23:56.183Z,39.3
2022-12-23T08:24:56.787Z,34.3
2022-12-23T08:25:57.383Z,36.8
2022-12-23T08:26:57.981Z,36.1
2022-12-23T08:27:58.602Z,37.2
2022-12-23T08:28:59.199Z,36.3
2022-12-23T08:29:59.805Z,36.6
2022-12-23T08:31:00.507Z,35.6
2022-12-23T08:32:01.062Z,39.3
2022-12-23T08:33:01.664Z,38.7
2022-12-23T08:34:02.264Z,36.1
2022-12-23T08:35:02.871Z,37.1
2022-12-23T08:36:03.460Z,34.7
2022-12-23T08:37:04.166Z,38.5
2022-12-23T08:38:04.717Z,36.0
2022-12-23T08:39:05.305Z,73.4
2022-12-23T08:40:05.900Z,114.0
2022-12-23T08:41:06.503Z,166.1
2022-12-23T08:42:07.133Z,90.6
2022-12-23T08:43:07.753Z,150.4
2022-12-23T08:44:08.368Z,168.3
2022-12-23T08:45:08.986Z,126.5
2022-12-23T08:46:09.656Z,236.0
2022-12-23T08:47:10.207Z,251.3
2022-12-23T08:48:10.810Z,201.5
2022-12-23T08:49:11.409Z,196.5
2022-12-23T08:50:12.011Z,273.6
2022-12-23T08:51:12.620Z,262.8
2022-12-23T08:52:13.209Z,177.1
2022-12-23T08:53:13.813Z,196.5
2022-12-23T08:54:14.423Z,281.6
2022-12-23T08:55:15.035Z,256.7
2022-12-23T08:56:15.664Z,317.6
2022-12-23T08:57:16.284Z,199.6
2022-12-23T08:58:16.861Z,63.4
2022-12-23T08:59:19.700Z,40.2
2022-12-23T09:00:18.071Z,91.9
2022-12-23T09:01:18.707Z,111.8
2022-12-23T09:02:19.407Z,161.8
2022-12-23T09:03:20.074Z,72.2
2022-12-23T09:04:20.718Z,69.4
2022-12-23T09:05:21.326Z,54.3
2022-12-23T09:06:28.342Z,40.0
2022-12-23T09:07:23.518Z,37.6
2022-12-23T09:08:24.130Z,45.8
2022-12-23T09:09:24.723Z,38.6
2022-12-23T09:10:25.321Z,38.0
2022-12-23T09:11:25.921Z,38.0
2022-12-23T09:12:26.573Z,33.2
2022-12-23T09:13:34.820Z,30.6
2022-12-23T09:14:28.744Z,30.9
2022-12-23T09:15:29.388Z,30.0
2022-12-23T09:16:30.032Z,30.3
2022-12-23T09:17:30.670Z,27.6
2022-12-23T09:18:31.269Z,30.0
2022-12-23T09:19:31.871Z,30.2
2022-12-23T09:20:32.475Z,26.6
2022-12-23T09:21:33.086Z,27.1
2022-12-23T09:22:33.675Z,28.9
2022-12-23T09:23:34.309Z,30.5
2022-12-23T09:24:34.930Z,26.7
2022-12-23T09:25:35.557Z,29.5
2022-12-23T09:26:36.151Z,30.9
2022-12-23T09:27:36.752Z,21.9
2022-12-23T09:28:37.371Z,22.0
2022-12-23T09:29:38.000Z,28.2
2022-12-23T09:30:38.593Z,25.8
2022-12-23T09:31:39.249Z,27.7
2022-12-23T09:32:39.852Z,26.5
2022-12-23T09:33:40.451Z,25.4
2022-12-23T09:34:41.060Z,27.6
2022-12-23T09:35:41.673Z,25.9
2022-12-23T09:36:42.277Z,28.9
2022-12-23T09:37:42.882Z,30.3
2022-12-23T09:38:43.481Z,28.0
2022-12-23T09:39:44.078Z,23.3
2022-12-23T09:40:44.683Z,26.8
2022-12-23T09:41:45.278Z,29.8
2022-12-23T09:42:45.882Z,27.1
2022-12-23T09:43:46.486Z,26.0
2022-12-23T09:44:47.083Z,29.5
2022-12-23T09:45:47.706Z,27.4
2022-12-23T09:46:48.393Z,28.7
2022-12-23T09:47:48.995Z,30.4
2022-12-23T09:48:49.618Z,29.2
2022-12-23T09:49:50.240Z,31.3
2022-12-23T09:50:50.837Z,28.5
2022-12-23T09:51:51.455Z,32.5
2022-12-23T09:52:52.036Z,27.5
2022-12-23T09:53:52.637Z,32.4
2022-12-23T09:54:53.276Z,24.9
2022-12-23T09:55:53.857Z,22.9
2022-12-23T09:56:54.461Z,25.7
2022-12-23T09:57:55.061Z,24.3
2022-12-23T09:58:55.660Z,23.5
2022-12-23T09:59:56.261Z,24.7
2022-12-23T10:00:56.859Z,24.0
2022-12-23T10:01:57.557Z,23.7
2022-12-23T10:02:58.358Z,22.9
2022-12-23T10:03:59.189Z,25.1
2022-12-23T10:04:59.789Z,30.1
2022-12-23T10:06:00.396Z,27.6
2022-12-23T10:07:03.048Z,25.5
2022-12-23T10:08:02.605Z,26.8
2022-12-23T10:09:03.207Z,22.4
2022-12-23T10:10:03.820Z,23.7
2022-12-23T10:11:04.432Z,27.7
2022-12-23T10:12:05.049Z,30.8
2022-12-23T10:13:05.652Z,27.6
2022-12-23T10:14:06.254Z,27.7
2022-12-23T10:15:06.873Z,25.2
2022-12-23T10:16:07.479Z,26.9
2022-12-23T10:17:08.051Z,23.6
2022-12-23T10:18:08.653Z,24.0
2022-12-23T10:19:09.260Z,24.4
2022-12-23T10:20:09.858Z,23.8
2022-12-23T10:21:10.461Z,27.0
2022-12-23T10:22:11.062Z,27.0
2022-12-23T10:23:11.668Z,26.8
2022-12-23T10:24:12.269Z,24.2
2022-12-23T10:25:12.908Z,23.6
2022-12-23T10:26:13.493Z,22.9
2022-12-23T10:27:14.118Z,24.5
2022-12-23T10:28:14.734Z,23.5
2022-12-23T10:29:18.753Z,26.4
2022-12-23T10:32:20.235Z,20.1
2022-12-23T10:33:20.740Z,20.7
2022-12-23T10:34:21.372Z,20.0
2022-12-23T10:35:21.948Z,22.8
2022-12-23T10:36:22.597Z,22.3
2022-12-23T10:37:23.173Z,23.0
2022-12-23T10:38:23.775Z,23.1
2022-12-23T10:39:24.384Z,22.6
2022-12-23T10:40:25.010Z,21.2
2022-12-23T10:41:25.598Z,18.8
2022-12-23T10:42:26.203Z,20.9
2022-12-23T10:43:26.844Z,25.5
2022-12-23T10:44:27.429Z,22.8
2022-12-23T10:45:28.025Z,25.5
2022-12-23T10:46:28.694Z,23.9
2022-12-23T10:47:29.241Z,22.9
2022-12-23T10:48:29.843Z,32.0
2022-12-23T10:49:31.440Z,23.4
2022-12-23T10:50:32.041Z,25.5
2022-12-23T10:51:32.647Z,24.0
2022-12-23T10:52:33.248Z,23.5
2022-12-23T10:53:33.852Z,22.5
2022-12-23T10:54:34.454Z,22.6
2022-12-23T10:55:35.053Z,19.0
2022-12-23T10:56:35.653Z,19.1
2022-12-23T10:57:36.254Z,20.8
2022-12-23T10:58:37.131Z,21.6
2022-12-23T10:59:37.727Z,20.5
2022-12-23T11:00:38.364Z,21.6
2022-12-23T11:01:39.121Z,17.7
2022-12-23T11:02:39.851Z,16.2
2022-12-23T11:03:40.551Z,17.0
2022-12-23T11:04:41.184Z,18.2
2022-12-23T11:05:41.797Z,15.6
2022-12-23T11:06:42.412Z,16.0
2022-12-23T11:07:45.074Z,17.8
2022-12-23T11:08:43.614Z,19.4
2022-12-23T11:09:44.264Z,19.9
2022-12-23T11:10:44.817Z,18.0
2022-12-23T11:11:45.417Z,16.0
2022-12-23T11:12:46.023Z,20.7
2022-12-23T11:13:46.642Z,15.9
2022-12-23T11:14:47.245Z,15.4
2022-12-23T11:15:47.842Z,15.4
2022-12-23T11:16:48.742Z,13.7
2022-12-23T11:17:49.279Z,13.3
2022-12-23T11:18:49.889Z,16.9
2022-12-23T11:19:50.484Z,15.6
2022-12-23T11:20:51.085Z,15.7
2022-12-23T11:21:51.686Z,16.3
2022-12-23T11:22:52.991Z,21.6
2022-12-23T11:23:53.592Z,17.5
2022-12-23T11:24:54.194Z,17.1
2022-12-23T11:25:54.818Z,13.3
2022-12-23T11:26:55.422Z,15.5
2022-12-23T11:27:56.038Z,18.0
2022-12-23T11:28:56.659Z,16.8
2022-12-23T11:29:57.260Z,15.4
2022-12-23T11:30:57.883Z,15.7
2022-12-23T11:31:58.532Z,16.2
2022-12-23T11:32:59.087Z,17.9
2022-12-23T11:33:59.691Z,17.5
2022-12-23T11:35:00.319Z,17.9
2022-12-23T11:36:00.890Z,19.3
2022-12-23T11:37:05.465Z,24.2
2022-12-23T11:38:03.086Z,75.1
2022-12-23T11:39:03.699Z,128.2
2022-12-23T11:40:04.288Z,161.0
2022-12-23T11:41:04.897Z,144.9
2022-12-23T11:42:05.517Z,242.0
2022-12-23T11:43:06.132Z,160.4
2022-12-23T11:44:06.727Z,261.2
2022-12-23T11:45:07.341Z,240.5
2022-12-23T11:46:07.961Z,113.5
2022-12-23T11:47:08.538Z,114.5
2022-12-23T11:48:09.160Z,127.9
2022-12-23T11:49:09.764Z,44.2
2022-12-23T11:50:10.364Z,376.1
2022-12-23T11:51:10.966Z,123.0
2022-12-23T11:52:11.571Z,168.9
2022-12-23T11:53:12.173Z,78.6
2022-12-23T11:54:12.783Z,35.0
2022-12-23T11:55:13.380Z,42.8
2022-12-23T11:56:13.980Z,36.0
2022-12-23T11:57:14.633Z,42.7
2022-12-23T11:58:15.223Z,20.4
2022-12-23T11:59:15.828Z,21.0
2022-12-23T12:00:16.458Z,19.4
2022-12-23T12:01:17.053Z,21.2
2022-12-23T12:02:17.738Z,20.6
2022-12-23T12:03:18.348Z,23.4
2022-12-23T12:04:18.960Z,19.7
2022-12-23T12:05:19.565Z,19.7
2022-12-23T12:06:20.171Z,20.9
2022-12-23T12:07:20.790Z,63.4
2022-12-23T12:08:21.387Z,75.6
2022-12-23T12:09:22.002Z,32.1
2022-12-23T12:10:22.591Z,162.9
2022-12-23T12:11:23.204Z,77.9
2022-12-23T12:12:23.809Z,126.8
2022-12-23T12:13:24.405Z,56.1
2022-12-23T12:14:25.003Z,69.9
2022-12-23T12:15:25.608Z,39.4
2022-12-23T12:16:26.283Z,107.0
2022-12-23T12:17:26.849Z,215.7
2022-12-23T12:18:27.450Z,180.1
2022-12-23T12:19:28.054Z,86.5
2022-12-23T12:20:28.673Z,31.9
2022-12-23T12:21:29.278Z,108.3
2022-12-23T12:22:29.886Z,45.3
2022-12-23T12:23:30.485Z,95.2
2022-12-23T12:24:31.091Z,16.8
2022-12-23T12:25:36.334Z,22.9
2022-12-23T12:26:33.279Z,32.9
2022-12-23T12:27:33.902Z,56.9
2022-12-23T12:28:34.515Z,37.2
2022-12-23T12:29:35.112Z,83.3
2022-12-23T12:30:35.739Z,64.0
2022-12-23T12:31:36.316Z,23.3
2022-12-23T12:32:36.918Z,68.8
2022-12-23T12:33:37.545Z,20.0
2022-12-23T12:34:38.121Z,54.4
2022-12-23T12:35:38.727Z,20.8
2022-12-23T12:36:39.363Z,56.1
2022-12-23T12:37:39.986Z,34.4
2022-12-23T12:38:40.570Z,37.7
2022-12-23T12:39:41.175Z,24.4
2022-12-23T12:40:41.777Z,69.4
2022-12-23T12:41:42.381Z,34.3
2022-12-23T12:42:42.987Z,28.7
2022-12-23T12:43:43.603Z,44.2
2022-12-23T12:44:44.208Z,22.4
2022-12-23T12:45:44.815Z,55.1
2022-12-23T12:46:45.423Z,32.6
2022-12-23T12:47:55.769Z,85.7
2022-12-23T12:48:47.617Z,117.8
2022-12-23T12:49:48.213Z,80.7
2022-12-23T12:50:48.814Z,123.9
2022-12-23T12:51:49.421Z,118.9
2022-12-23T12:52:50.019Z,90.3
2022-12-23T12:53:50.621Z,122.4
2022-12-23T12:54:51.219Z,50.0
2022-12-23T12:55:52.827Z,64.3
2022-12-23T12:56:53.433Z,70.7
2022-12-23T12:57:54.015Z,113.5
2022-12-23T12:58:54.632Z,75.0
2022-12-23T12:59:59.926Z,157.8
2022-12-23T13:00:56.848Z,91.4
2022-12-23T13:01:57.492Z,93.3
2022-12-23T13:02:58.142Z,129.0
2022-12-23T13:03:58.665Z,37.2
2022-12-23T13:04:59.261Z,40.2
2022-12-23T13:05:59.871Z,46.3
2022-12-23T13:07:00.485Z,139.6
2022-12-23T13:08:01.100Z,66.9
2022-12-23T13:09:01.709Z,84.5
2022-12-23T13:10:02.330Z,40.3
2022-12-23T13:11:02.906Z,87.9
2022-12-23T13:12:03.514Z,65.1
2022-12-23T13:13:04.111Z,29.3
2022-12-23T13:14:04.713Z,33.5
2022-12-23T13:15:05.310Z,32.2
2022-12-23T13:16:05.913Z,31.4
2022-12-23T13:17:06.545Z,42.5
2022-12-23T13:18:07.135Z,30.4
2022-12-23T13:19:07.737Z,35.5
2022-12-23T13:20:08.406Z,86.0
2022-12-23T13:21:09.002Z,37.4
2022-12-23T13:22:09.607Z,185.0
2022-12-23T13:23:34.297Z,75.0
2022-12-23T13:24:11.794Z,272.4
2022-12-23T13:25:12.389Z,126.7
2022-12-23T13:26:12.993Z,57.1
2022-12-23T13:27:13.598Z,204.3
2022-12-23T13:28:14.199Z,166.3
2022-12-23T13:29:14.815Z,130.0